Time;durP1;ratioP1;P1;durP2;ratioP2;P2;SDS_P1;SDS_P2;PMS_P1;PMS_P2;Temp;Humidity;BMP_temperature;BMP_pressure;BME280_temperature;BME280_humidity;BME280_pressure;Samples;Min_cycle;Max_cycle;Signal;HPM_P1;HPM_P2
2023/07/15 00:01:25;;;;;;;4.53;2.78;;;;;;;;;;10375606;28;20029;-64
2023/07/15 00:06:27;;;;;;;7.72;2.33;;;;;;;;;;10374425;28;20030;-64
2023/07/15 00:11:33;;;;;;;2.97;2.33;;;;;;;;;;10372992;28;20036;-64
2023/07/15 00:16:35;;;;;;;5.10;1.98;;;;;;;;;;10375320;28;20096;-62
2023/07/15 00:21:36;;;;;;;5.22;2.40;;;;;;;;;;10373900;28;20030;-64
2023/07/15 00:26:40;;;;;;;6.88;2.15;;;;;;;;;;10374077;28;20030;-64
2023/07/15 00:31:43;;;;;;;2.38;1.80;;;;;;;;;;10373705;28;20029;-64
2023/07/15 00:36:45;;;;;;;2.45;1.95;;;;;;;;;;10373774;28;20429;-64
2023/07/15 00:41:47;;;;;;;5.47;2.25;;;;;;;;;;10373675;28;20022;-64
2023/07/15 00:47:38;;;;;;;5.63;2.35;;;;;;;;;;10355949;28;20049;-66
2023/07/15 00:52:40;;;;;;;6.22;2.72;;;;;;;;;;10248676;29;20054;-66
2023/07/15 00:57:42;;;;;;;9.23;2.90;;;;;;;;;;10248998;29;20074;-66
2023/07/15 01:02:43;;;;;;;4.00;2.08;;;;;;;;;;10252169;28;20074;-66
2023/07/15 01:07:45;;;;;;;10.57;2.47;;;;;;;;;;10256497;29;20035;-68
2023/07/15 01:12:47;;;;;;;10.27;2.50;;;;;;;;;;10255425;29;20039;-68
2023/07/15 01:17:48;;;;;;;3.35;2.30;;;;;;;;;;10255900;29;20522;-68
2023/07/15 01:22:50;;;;;;;4.88;2.40;;;;;;;;;;10341155;28;20108;-68
2023/07/15 01:27:52;;;;;;;5.85;2.40;;;;;;;;;;10379995;28;20022;-68
2023/07/15 01:32:53;;;;;;;4.97;2.10;;;;;;;;;;10379789;28;20025;-68
2023/07/15 01:37:54;;;;;;;2.90;2.15;;;;;;;;;;10380159;28;20124;-67
2023/07/15 01:42:55;;;;;;;4.28;2.30;;;;;;;;;;10380435;28;20480;-67
2023/07/15 01:47:57;;;;;;;3.55;2.30;;;;;;;;;;10379335;28;20033;-66
2023/07/15 01:53:00;;;;;;;4.70;2.20;;;;;;;;;;10379308;28;20033;-67
2023/07/15 01:58:01;;;;;;;3.95;2.40;;;;;;;;;;10378808;28;20033;-67
2023/07/15 02:03:03;;;;;;;4.22;2.60;;;;;;;;;;10378412;28;20103;-67
2023/07/15 02:08:05;;;;;;;6.57;2.30;;;;;;;;;;10378341;28;20033;-66
2023/07/15 02:13:08;;;;;;;3.70;1.80;;;;;;;;;;10377579;28;20034;-67
2023/07/15 02:18:11;;;;;;;3.80;1.98;;;;;;;;;;10377910;28;20033;-67
2023/07/15 02:23:12;;;;;;;3.92;2.05;;;;;;;;;;10377683;28;20131;-67
2023/07/15 02:28:14;;;;;;;4.82;2.58;;;;;;;;;;10378215;28;20037;-68
2023/07/15 02:33:16;;;;;;;12.60;2.50;;;;;;;;;;10377400;28;20034;-65
2023/07/15 02:38:18;;;;;;;5.20;2.05;;;;;;;;;;10377738;28;20034;-66
2023/07/15 02:43:20;;;;;;;8.85;2.33;;;;;;;;;;10377563;28;20034;-66
2023/07/15 02:48:21;;;;;;;6.35;2.20;;;;;;;;;;10376911;28;20030;-66
2023/07/15 02:53:24;;;;;;;5.47;2.47;;;;;;;;;;10377745;28;20069;-66
2023/07/15 02:58:25;;;;;;;3.65;2.00;;;;;;;;;;10376459;28;20030;-66
2023/07/15 03:03:27;;;;;;;4.40;2.47;;;;;;;;;;10376050;28;20041;-65
2023/07/15 03:08:29;;;;;;;5.57;2.40;;;;;;;;;;10376126;28;20022;-64
2023/07/15 03:13:30;;;;;;;5.28;2.17;;;;;;;;;;10376142;28;20021;-64
2023/07/15 03:18:32;;;;;;;4.50;2.38;;;;;;;;;;10375853;28;20076;-65
2023/07/15 03:23:34;;;;;;;4.85;2.15;;;;;;;;;;10375989;28;20109;-68
2023/07/15 03:28:35;;;;;;;6.05;2.83;;;;;;;;;;10374980;28;20109;-64
2023/07/15 03:33:37;;;;;;;8.35;2.33;;;;;;;;;;10375246;28;20026;-64
2023/07/15 03:38:38;;;;;;;6.32;2.90;;;;;;;;;;10375686;28;20113;-67
2023/07/15 03:43:40;;;;;;;10.40;3.13;;;;;;;;;;10375044;28;20061;-67
2023/07/15 03:48:42;;;;;;;8.45;2.78;;;;;;;;;;10375421;28;20022;-66
2023/07/15 03:53:43;;;;;;;8.18;2.22;;;;;;;;;;10374700;28;20033;-66
2023/07/15 03:58:44;;;;;;;2.90;2.20;;;;;;;;;;10374460;28;20143;-66
2023/07/15 04:03:46;;;;;;;3.83;2.28;;;;;;;;;;10374234;28;20127;-64
2023/07/15 04:08:49;;;;;;;8.55;2.78;;;;;;;;;;10356890;28;20026;-65
2023/07/15 04:13:51;;;;;;;5.13;2.67;;;;;;;;;;10374230;28;20041;-65
2023/07/15 04:18:53;;;;;;;3.85;2.25;;;;;;;;;;10374144;28;20092;-65
2023/07/15 04:23:54;;;;;;;3.30;2.42;;;;;;;;;;10374146;28;20026;-65
2023/07/15 04:28:56;;;;;;;5.45;2.47;;;;;;;;;;10373948;28;20113;-66
2023/07/15 04:33:58;;;;;;;6.00;2.38;;;;;;;;;;10374369;28;20033;-66
2023/07/15 04:39:00;;;;;;;4.65;2.10;;;;;;;;;;10380626;28;20029;-67
2023/07/15 04:44:02;;;;;;;14.50;2.67;;;;;;;;;;10381656;28;20025;-68
2023/07/15 04:49:04;;;;;;;5.18;2.17;;;;;;;;;;10381650;28;20022;-65
2023/07/15 04:54:05;;;;;;;5.57;2.25;;;;;;;;;;10381273;28;20408;-65
2023/07/15 04:59:07;;;;;;;5.22;2.25;;;;;;;;;;10380999;28;20030;-63
2023/07/15 05:04:09;;;;;;;3.65;2.00;;;;;;;;;;10380546;28;20068;-63
2023/07/15 05:09:11;;;;;;;3.95;2.00;;;;;;;;;;10380722;28;20404;-61
2023/07/15 05:14:12;;;;;;;10.43;2.25;;;;;;;;;;10380393;28;20037;-60
2023/07/15 05:19:14;;;;;;;8.82;2.33;;;;;;;;;;10381477;28;20029;-64
2023/07/15 05:24:15;;;;;;;3.28;2.22;;;;;;;;;;10380576;28;20034;-63
2023/07/15 05:29:17;;;;;;;6.65;2.67;;;;;;;;;;10379996;28;20018;-62
2023/07/15 05:34:19;;;;;;;4.32;2.63;;;;;;;;;;10379727;28;20026;-64
2023/07/15 05:39:21;;;;;;;7.40;2.40;;;;;;;;;;10379539;28;20033;-65
2023/07/15 05:44:23;;;;;;;3.90;2.33;;;;;;;;;;10379871;28;20030;-64
2023/07/15 05:49:24;;;;;;;2.50;1.90;;;;;;;;;;10378316;28;20105;-63
2023/07/15 05:54:27;;;;;;;5.60;2.40;;;;;;;;;;10378803;28;20022;-61
2023/07/15 05:59:29;;;;;;;6.95;2.53;;;;;;;;;;10378763;28;20478;-60
2023/07/15 06:04:30;;;;;;;3.95;2.20;;;;;;;;;;10378392;28;20076;-64
2023/07/15 06:09:32;;;;;;;4.32;2.10;;;;;;;;;;10378428;28;20029;-63
2023/07/15 06:14:34;;;;;;;3.92;1.80;;;;;;;;;;10378181;28;20441;-64
2023/07/15 06:19:37;;;;;;;4.30;2.15;;;;;;;;;;10377972;28;20096;-64
2023/07/15 06:24:39;;;;;;;3.15;2.28;;;;;;;;;;10377815;28;20028;-67
2023/07/15 06:29:42;;;;;;;5.72;2.28;;;;;;;;;;10377764;28;20465;-66
2023/07/15 06:34:44;;;;;;;4.97;1.80;;;;;;;;;;10377497;28;20457;-64
2023/07/15 06:39:46;;;;;;;5.90;1.60;;;;;;;;;;10377186;28;20096;-63
2023/07/15 06:44:48;;;;;;;4.63;1.75;;;;;;;;;;10360035;28;20029;-64
2023/07/15 06:49:49;;;;;;;1.95;1.60;;;;;;;;;;10376776;28;20018;-63
2023/07/15 06:54:52;;;;;;;8.43;1.60;;;;;;;;;;10376734;28;20026;-64
2023/07/15 06:59:54;;;;;;;4.95;1.80;;;;;;;;;;10376761;28;20061;-64
2023/07/15 07:04:56;;;;;;;2.47;1.83;;;;;;;;;;10376115;28;20058;-62
2023/07/15 07:09:58;;;;;;;5.40;1.92;;;;;;;;;;10376184;28;20030;-60
2023/07/15 07:15:00;;;;;;;7.07;1.98;;;;;;;;;;10375894;28;20061;-64
2023/07/15 07:20:03;;;;;;;3.45;1.88;;;;;;;;;;10375726;28;20030;-64
2023/07/15 07:25:05;;;;;;;3.25;2.20;;;;;;;;;;10376322;28;20034;-61
2023/07/15 07:30:08;;;;;;;13.50;2.53;;;;;;;;;;10376453;28;20038;-64
2023/07/15 07:35:11;;;;;;;9.43;2.38;;;;;;;;;;10374928;28;20060;-63
2023/07/15 07:40:13;;;;;;;4.82;2.05;;;;;;;;;;10375304;28;20096;-62
2023/07/15 07:45:16;;;;;;;6.05;2.30;;;;;;;;;;10374801;28;20097;-63
2023/07/15 07:50:18;;;;;;;3.17;2.20;;;;;;;;;;10374665;28;20104;-62
2023/07/15 07:55:19;;;;;;;4.88;2.15;;;;;;;;;;10374524;28;20073;-60
2023/07/15 08:00:21;;;;;;;7.63;2.28;;;;;;;;;;10374897;28;20469;-60
2023/07/15 08:05:23;;;;;;;10.25;2.17;;;;;;;;;;10374297;28;20545;-62
2023/07/15 08:10:24;;;;;;;9.23;2.70;;;;;;;;;;10373690;28;20044;-62
2023/07/15 08:15:25;;;;;;;8.77;2.45;;;;;;;;;;10374089;28;20030;-62
2023/07/15 08:20:26;;;;;;;13.02;2.70;;;;;;;;;;10373230;28;20033;-64
2023/07/15 08:25:28;;;;;;;4.57;2.47;;;;;;;;;;10356884;28;20124;-65
2023/07/15 08:30:28;;;;;;;15.65;2.80;;;;;;;;;;10350363;28;20045;-65
2023/07/15 08:35:29;;;;;;;6.68;2.60;;;;;;;;;;10358903;28;20251;-65
2023/07/15 08:40:30;;;;;;;6.32;2.17;;;;;;;;;;10359819;28;20026;-67
2023/07/15 08:45:35;;;;;;;4.10;2.40;;;;;;;;;;10361089;28;20046;-67
2023/07/15 08:50:36;;;;;;;6.63;2.38;;;;;;;;;;10361491;28;20044;-65
2023/07/15 08:55:37;;;;;;;6.22;2.60;;;;;;;;;;10359911;28;20089;-65
2023/07/15 09:00:38;;;;;;;4.38;2.40;;;;;;;;;;10358629;28;20091;-64
2023/07/15 09:05:39;;;;;;;7.22;2.55;;;;;;;;;;10359008;28;20447;-64
2023/07/15 09:10:56;;;;;;;5.00;2.40;;;;;;;;;;10362171;28;20038;-64
2023/07/15 09:15:58;;;;;;;10.98;2.60;;;;;;;;;;10357900;28;20494;-64
2023/07/15 09:21:10;;;;;;;5.50;2.58;;;;;;;;;;10357012;28;20100;-64
2023/07/15 09:26:13;;;;;;;4.53;2.38;;;;;;;;;;10360865;28;20477;-64
2023/07/15 09:31:25;;;;;;;6.35;2.60;;;;;;;;;;10358251;28;20046;-64
2023/07/15 09:36:30;;;;;;;6.28;2.50;;;;;;;;;;10343095;28;20544;-64
2023/07/15 09:41:31;;;;;;;6.68;2.97;;;;;;;;;;10364436;28;20057;-64
2023/07/15 09:46:32;;;;;;;13.95;3.03;;;;;;;;;;10336818;28;20034;-64
2023/07/15 09:51:34;;;;;;;15.55;3.05;;;;;;;;;;10364109;28;20052;-66
2023/07/15 09:56:39;;;;;;;7.13;2.83;;;;;;;;;;10353270;28;20177;-64
2023/07/15 10:01:50;;;;;;;9.15;3.05;;;;;;;;;;10369986;28;20046;-64
2023/07/15 10:06:51;;;;;;;6.93;2.50;;;;;;;;;;10368387;28;20081;-65
2023/07/15 10:11:54;;;;;;;4.00;2.70;;;;;;;;;;10347827;28;20409;-65
2023/07/15 10:17:13;;;;;;;5.47;2.47;;;;;;;;;;10338900;28;20515;-64
2023/07/15 10:22:18;;;;;;;9.90;2.65;;;;;;;;;;10355195;28;20037;-66
2023/07/15 10:27:18;;;;;;;9.93;2.88;;;;;;;;;;10367911;28;20076;-67
2023/07/15 10:32:19;;;;;;;6.03;2.65;;;;;;;;;;10371643;28;20084;-66
2023/07/15 10:37:20;;;;;;;10.90;2.92;;;;;;;;;;10367729;28;20029;-66
2023/07/15 10:42:20;;;;;;;8.68;2.88;;;;;;;;;;10367193;28;20018;-67
2023/07/15 10:47:21;;;;;;;7.65;3.33;;;;;;;;;;10366825;28;20023;-67
2023/07/15 10:52:23;;;;;;;11.43;3.30;;;;;;;;;;10343569;28;20030;-66
2023/07/15 10:57:23;;;;;;;6.57;2.78;;;;;;;;;;10357081;28;20045;-65
2023/07/15 11:02:24;;;;;;;8.10;2.75;;;;;;;;;;10361545;28;20045;-67
2023/07/15 11:07:24;;;;;;;12.95;3.03;;;;;;;;;;10360730;28;20037;-67
2023/07/15 11:12:25;;;;;;;9.93;2.85;;;;;;;;;;10363152;28;20092;-67
2023/07/15 11:17:26;;;;;;;8.45;2.90;;;;;;;;;;10359850;28;20044;-66
2023/07/15 11:22:27;;;;;;;9.05;3.33;;;;;;;;;;10362512;28;20030;-66
2023/07/15 11:27:27;;;;;;;9.82;3.00;;;;;;;;;;10359071;28;20030;-66
2023/07/15 11:32:28;;;;;;;10.43;3.15;;;;;;;;;;10361940;28;20470;-66
2023/07/15 11:37:29;;;;;;;8.82;3.10;;;;;;;;;;10365709;28;20041;-66
2023/07/15 11:42:34;;;;;;;12.98;3.35;;;;;;;;;;10359566;28;20037;-66
2023/07/15 11:47:35;;;;;;;14.75;3.55;;;;;;;;;;10358779;28;20030;-66
2023/07/15 11:52:41;;;;;;;10.95;2.92;;;;;;;;;;10353141;28;20033;-67
2023/07/15 11:57:47;;;;;;;7.60;3.58;;;;;;;;;;10363079;28;20062;-66
2023/07/15 12:02:47;;;;;;;11.80;3.20;;;;;;;;;;10359605;28;20452;-67
2023/07/15 12:07:52;;;;;;;14.60;2.75;;;;;;;;;;10362298;28;20171;-66
2023/07/15 12:12:52;;;;;;;9.15;2.83;;;;;;;;;;10360069;28;20046;-66
2023/07/15 12:17:53;;;;;;;6.68;2.60;;;;;;;;;;10351831;28;20038;-66
2023/07/15 12:22:54;;;;;;;11.05;3.35;;;;;;;;;;10354382;28;20022;-66
2023/07/15 12:27:54;;;;;;;8.52;3.33;;;;;;;;;;10352167;28;20030;-66
2023/07/15 12:32:55;;;;;;;8.73;3.08;;;;;;;;;;10357336;28;20045;-67
2023/07/15 12:37:55;;;;;;;11.15;3.40;;;;;;;;;;10359279;28;20034;-68
2023/07/15 12:42:56;;;;;;;13.32;3.95;;;;;;;;;;10359298;28;20080;-62
2023/07/15 12:47:56;;;;;;;13.90;3.35;;;;;;;;;;10355043;28;20034;-63
2023/07/15 12:52:57;;;;;;;20.63;4.13;;;;;;;;;;10356666;28;20029;-66
2023/07/15 12:57:57;;;;;;;11.20;3.63;;;;;;;;;;10359331;28;20038;-62
2023/07/15 13:02:58;;;;;;;10.70;3.42;;;;;;;;;;10357067;28;20042;-61
2023/07/15 13:07:59;;;;;;;19.35;3.38;;;;;;;;;;10356227;28;20045;-60
2023/07/15 13:13:00;;;;;;;11.50;3.85;;;;;;;;;;10370744;28;20030;-60
2023/07/15 13:18:00;;;;;;;9.40;3.90;;;;;;;;;;10363905;28;20056;-60
2023/07/15 13:23:01;;;;;;;8.98;3.58;;;;;;;;;;10364014;28;20088;-64
2023/07/15 13:28:03;;;;;;;7.30;3.30;;;;;;;;;;10375195;28;20021;-59
2023/07/15 13:33:05;;;;;;;4.63;2.95;;;;;;;;;;10357271;28;20037;-62
2023/07/15 13:38:06;;;;;;;5.95;3.30;;;;;;;;;;10369416;28;20527;-59
2023/07/15 13:43:06;;;;;;;5.78;3.10;;;;;;;;;;10367659;28;20178;-60
2023/07/15 13:48:07;;;;;;;5.80;3.38;;;;;;;;;;10365864;28;20034;-59
2023/07/15 13:53:08;;;;;;;6.38;3.13;;;;;;;;;;10365496;28;20072;-61
2023/07/15 13:58:08;;;;;;;7.22;3.13;;;;;;;;;;10370299;28;20018;-59
2023/07/15 14:03:09;;;;;;;6.28;3.20;;;;;;;;;;10370407;28;20366;-60
2023/07/15 14:08:09;;;;;;;7.00;3.08;;;;;;;;;;10370436;28;20034;-59
2023/07/15 14:13:10;;;;;;;8.95;3.28;;;;;;;;;;10350484;28;20108;-59
2023/07/15 14:18:10;;;;;;;5.93;2.95;;;;;;;;;;10334995;28;20034;-59
2023/07/15 14:23:11;;;;;;;11.60;3.65;;;;;;;;;;10332485;28;20037;-59
2023/07/15 14:28:12;;;;;;;7.28;3.13;;;;;;;;;;10343501;28;20033;-59
2023/07/15 14:33:12;;;;;;;10.18;3.22;;;;;;;;;;10350816;28;20205;-59
2023/07/15 14:38:13;;;;;;;11.82;3.17;;;;;;;;;;10331754;28;20026;-63
2023/07/15 14:43:14;;;;;;;13.75;4.13;;;;;;;;;;10338754;28;20022;-59
2023/07/15 14:48:15;;;;;;;10.52;3.83;;;;;;;;;;10333297;28;20115;-59
2023/07/15 14:53:15;;;;;;;10.15;3.67;;;;;;;;;;10363047;28;20050;-59
2023/07/15 14:58:16;;;;;;;9.23;4.07;;;;;;;;;;10338810;28;20492;-61
2023/07/15 15:03:17;;;;;;;11.65;3.47;;;;;;;;;;10331022;28;20050;-59
2023/07/15 15:08:17;;;;;;;8.40;3.65;;;;;;;;;;10331185;28;20028;-59
2023/07/15 15:13:18;;;;;;;10.43;3.90;;;;;;;;;;10333465;28;20030;-64
2023/07/15 15:18:18;;;;;;;20.52;4.68;;;;;;;;;;10330227;28;20030;-60
2023/07/15 15:23:19;;;;;;;6.25;3.33;;;;;;;;;;10342596;28;20026;-59
2023/07/15 15:28:20;;;;;;;8.05;3.53;;;;;;;;;;10352185;28;20022;-59
2023/07/15 15:33:20;;;;;;;10.50;4.05;;;;;;;;;;10345728;28;20026;-59
2023/07/15 15:38:21;;;;;;;6.88;3.40;;;;;;;;;;10328920;28;20041;-58
2023/07/15 15:43:21;;;;;;;8.10;3.60;;;;;;;;;;10330131;28;20037;-59
2023/07/15 15:48:22;;;;;;;11.25;4.22;;;;;;;;;;10342629;28;20030;-59
2023/07/15 15:53:23;;;;;;;10.27;3.83;;;;;;;;;;10341771;28;20033;-59
2023/07/15 15:58:23;;;;;;;9.00;3.53;;;;;;;;;;10329971;28;20505;-59
2023/07/15 16:03:24;;;;;;;8.70;4.00;;;;;;;;;;10341070;28;20406;-59
2023/07/15 16:08:25;;;;;;;6.80;3.10;;;;;;;;;;10329859;28;20382;-59
2023/07/15 16:13:28;;;;;;;10.55;3.80;;;;;;;;;;10353216;28;20401;-64
2023/07/15 16:18:29;;;;;;;5.90;3.80;;;;;;;;;;10341123;28;20425;-59
2023/07/15 16:23:29;;;;;;;4.72;3.20;;;;;;;;;;10340955;28;20030;-59
2023/07/15 16:28:30;;;;;;;5.60;3.38;;;;;;;;;;10330391;28;20042;-59
2023/07/15 16:33:30;;;;;;;5.65;3.58;;;;;;;;;;10335534;28;20389;-62
2023/07/15 16:38:31;;;;;;;7.70;3.90;;;;;;;;;;10337421;28;20375;-59
2023/07/15 16:43:32;;;;;;;10.88;3.80;;;;;;;;;;10335392;28;20085;-59
2023/07/15 16:48:32;;;;;;;8.23;4.00;;;;;;;;;;10336929;28;20046;-59
2023/07/15 16:53:33;;;;;;;7.22;4.00;;;;;;;;;;10349052;28;20042;-59
2023/07/15 16:58:33;;;;;;;7.88;3.60;;;;;;;;;;10335299;28;20030;-62
2023/07/15 17:03:34;;;;;;;10.25;4.07;;;;;;;;;;10336096;28;20489;-59
2023/07/15 17:08:34;;;;;;;7.25;4.07;;;;;;;;;;10350059;28;20042;-59
2023/07/15 17:13:35;;;;;;;6.03;3.70;;;;;;;;;;10346666;28;20034;-59
2023/07/15 17:18:36;;;;;;;6.43;3.85;;;;;;;;;;10335656;28;20026;-61
2023/07/15 17:23:36;;;;;;;7.10;3.80;;;;;;;;;;10347489;28;20033;-58
2023/07/15 17:28:37;;;;;;;6.68;4.00;;;;;;;;;;10349393;28;20496;-59
2023/07/15 17:33:37;;;;;;;6.97;3.97;;;;;;;;;;10347641;28;20478;-59
2023/07/15 17:38:38;;;;;;;10.55;3.75;;;;;;;;;;10334609;28;20486;-59
2023/07/15 17:43:39;;;;;;;7.03;4.40;;;;;;;;;;10332315;28;20479;-59
2023/07/15 17:48:39;;;;;;;6.75;3.60;;;;;;;;;;10335409;28;20085;-61
2023/07/15 17:53:40;;;;;;;6.38;4.05;;;;;;;;;;10346713;28;20029;-59
2023/07/15 17:58:40;;;;;;;5.82;3.70;;;;;;;;;;10334099;28;20399;-59
2023/07/15 18:03:41;;;;;;;8.15;3.95;;;;;;;;;;10345944;28;20049;-59
2023/07/15 18:08:41;;;;;;;3.80;3.40;;;;;;;;;;10347162;28;20034;-59
2023/07/15 18:13:42;;;;;;;6.88;3.92;;;;;;;;;;10368619;28;20033;-65
2023/07/15 18:18:43;;;;;;;5.97;3.70;;;;;;;;;;10333313;28;20382;-59
2023/07/15 18:23:43;;;;;;;5.68;3.72;;;;;;;;;;10333112;28;20477;-59
2023/07/15 18:28:44;;;;;;;6.55;3.80;;;;;;;;;;10336012;28;20389;-62
2023/07/15 18:33:45;;;;;;;4.90;3.60;;;;;;;;;;10332997;28;20022;-59
2023/07/15 18:38:47;;;;;;;4.93;3.60;;;;;;;;;;10344619;28;20038;-59
2023/07/15 18:43:47;;;;;;;5.97;3.65;;;;;;;;;;10344233;28;20182;-59
2023/07/15 18:48:48;;;;;;;6.32;3.25;;;;;;;;;;10343494;28;20583;-59
2023/07/15 18:53:49;;;;;;;6.93;3.42;;;;;;;;;;10331379;28;20443;-59
2023/07/15 18:58:49;;;;;;;6.38;3.60;;;;;;;;;;10330763;28;20385;-59
2023/07/15 19:03:50;;;;;;;5.10;3.63;;;;;;;;;;10331607;28;20047;-59
2023/07/15 19:08:50;;;;;;;8.80;4.18;;;;;;;;;;10330969;28;20018;-59
2023/07/15 19:13:51;;;;;;;7.60;3.40;;;;;;;;;;10347746;28;20201;-59
2023/07/15 19:18:52;;;;;;;7.35;3.50;;;;;;;;;;10331399;28;20044;-58
2023/07/15 19:23:53;;;;;;;5.32;3.28;;;;;;;;;;10342990;28;20089;-59
2023/07/15 19:28:54;;;;;;;5.55;3.28;;;;;;;;;;10333597;28;20560;-61
2023/07/15 19:33:54;;;;;;;5.47;3.17;;;;;;;;;;10341827;28;20030;-59
2023/07/15 19:38:55;;;;;;;5.40;3.28;;;;;;;;;;10354774;28;20034;-59
2023/07/15 19:43:55;;;;;;;6.88;3.47;;;;;;;;;;10354412;28;20040;-59
2023/07/15 19:48:56;;;;;;;6.75;3.50;;;;;;;;;;10329877;28;20528;-60
2023/07/15 19:53:57;;;;;;;9.48;3.80;;;;;;;;;;10328949;28;20030;-59
2023/07/15 19:58:58;;;;;;;6.20;3.80;;;;;;;;;;10329279;28;20042;-59
2023/07/15 20:03:58;;;;;;;7.57;3.13;;;;;;;;;;10338338;28;20481;-59
2023/07/15 20:08:59;;;;;;;5.03;3.15;;;;;;;;;;10331336;28;20478;-59
2023/07/15 20:14:00;;;;;;;4.55;2.83;;;;;;;;;;10336373;28;20397;-59
2023/07/15 20:19:00;;;;;;;3.88;3.05;;;;;;;;;;10338341;28;20038;-59
2023/07/15 20:24:01;;;;;;;4.68;3.17;;;;;;;;;;10329718;28;20034;-59
2023/07/15 20:29:01;;;;;;;7.03;2.95;;;;;;;;;;10366123;28;20026;-59
2023/07/15 20:34:03;;;;;;;4.05;3.17;;;;;;;;;;10365824;28;20022;-59
2023/07/15 20:39:04;;;;;;;5.20;3.10;;;;;;;;;;10365843;28;20396;-59
2023/07/15 20:44:04;;;;;;;4.78;3.08;;;;;;;;;;10365623;28;20025;-59
2023/07/15 20:49:05;;;;;;;5.55;2.95;;;;;;;;;;10364951;28;20140;-59
2023/07/15 20:54:06;;;;;;;6.88;3.20;;;;;;;;;;10364864;28;20049;-60
2023/07/15 20:59:06;;;;;;;6.05;3.17;;;;;;;;;;10364736;28;20030;-59
2023/07/15 21:04:07;;;;;;;4.88;2.90;;;;;;;;;;10364844;28;20064;-59
2023/07/15 21:09:07;;;;;;;4.05;2.88;;;;;;;;;;10365018;28;20025;-60
2023/07/15 21:14:08;;;;;;;6.75;3.08;;;;;;;;;;10359786;28;20378;-62
2023/07/15 21:19:09;;;;;;;3.33;3.00;;;;;;;;;;10347348;28;20171;-59
2023/07/15 21:24:09;;;;;;;5.18;3.03;;;;;;;;;;10343906;28;20041;-59
2023/07/15 21:29:10;;;;;;;5.45;3.15;;;;;;;;;;10339092;28;20084;-59
2023/07/15 21:34:11;;;;;;;4.72;3.20;;;;;;;;;;10336832;28;20029;-59
2023/07/15 21:39:14;;;;;;;3.42;2.55;;;;;;;;;;10345130;28;20066;-58
2023/07/15 21:44:15;;;;;;;3.15;2.85;;;;;;;;;;10334935;28;20363;-61
2023/07/15 21:49:17;;;;;;;3.22;2.58;;;;;;;;;;10346358;28;20066;-64
2023/07/15 21:54:18;;;;;;;6.68;3.05;;;;;;;;;;10346196;28;20377;-59
2023/07/15 21:59:19;;;;;;;5.10;3.25;;;;;;;;;;10332865;28;20034;-59
2023/07/15 22:04:19;;;;;;;4.82;3.22;;;;;;;;;;10333064;28;20072;-59
2023/07/15 22:09:20;;;;;;;3.08;2.50;;;;;;;;;;10340000;28;20025;-59
2023/07/15 22:14:20;;;;;;;2.97;2.45;;;;;;;;;;10338846;28;20021;-59
2023/07/15 22:19:21;;;;;;;5.47;2.88;;;;;;;;;;10333437;28;20532;-59
2023/07/15 22:24:21;;;;;;;3.88;2.97;;;;;;;;;;10337837;28;20061;-59
2023/07/15 22:29:22;;;;;;;2.92;2.58;;;;;;;;;;10346789;28;20026;-59
2023/07/15 22:34:23;;;;;;;7.95;3.28;;;;;;;;;;10340912;28;20041;-59
2023/07/15 22:39:23;;;;;;;2.72;2.40;;;;;;;;;;10332316;28;20187;-62
2023/07/15 22:44:24;;;;;;;6.47;2.53;;;;;;;;;;10332830;28;20029;-61
2023/07/15 22:49:25;;;;;;;4.55;2.72;;;;;;;;;;10331731;28;20031;-59
2023/07/15 22:54:25;;;;;;;3.35;2.90;;;;;;;;;;10331334;28;20022;-59
2023/07/15 22:59:26;;;;;;;3.08;2.60;;;;;;;;;;10332095;28;20030;-59
2023/07/15 23:04:26;;;;;;;3.70;2.63;;;;;;;;;;10360136;28;20049;-61
2023/07/15 23:09:28;;;;;;;5.70;3.05;;;;;;;;;;10366288;28;20533;-66
2023/07/15 23:14:29;;;;;;;3.38;2.88;;;;;;;;;;10367718;28;20103;-65
2023/07/15 23:19:29;;;;;;;3.28;2.65;;;;;;;;;;10365617;28;20037;-63
2023/07/15 23:24:30;;;;;;;2.95;2.45;;;;;;;;;;10366794;28;20099;-68
2023/07/15 23:29:31;;;;;;;2.70;2.50;;;;;;;;;;10366625;28;20033;-66
2023/07/15 23:34:31;;;;;;;3.42;2.90;;;;;;;;;;10367231;28;20029;-66
2023/07/15 23:39:32;;;;;;;2.72;2.50;;;;;;;;;;10367129;28;20381;-65
2023/07/15 23:44:32;;;;;;;3.72;2.75;;;;;;;;;;10365474;28;20045;-67
2023/07/15 23:49:33;;;;;;;3.00;2.45;;;;;;;;;;10367900;28;20030;-66
2023/07/15 23:54:34;;;;;;;3.28;2.47;;;;;;;;;;10366189;28;20052;-66
2023/07/15 23:59:34;;;;;;;4.28;2.47;;;;;;;;;;10366330;28;20099;-59
